Akiak, Alaska
Current Conditions -  °F | °C
As of 4:56 AM on Sunday 23 Nov 2014 (Local Time) from PFKW Reporting Station
Clear Clear  
Wind Chill:   Ceiling: Unl
Heat Index: 14°   Visibility: 10mi
Dew Point: 10°   Wind: 6mph
Humidity: 84%   Direction: 40°NE
Pressure: 29.26"   Gusts: NA
Location:  60.92°N, 161.23°W
Report Text: PFKW 231356Z AUTO 04005KT 10SM CLR M10/M12 A2926 RMK AO2 SLP909 T11001122 FZRANO $
Loading
Personal Weather Stations






























Interactive Weather Map New forecast layout! Learn more

10-Day Weather Forecast

Advertisements
Track Severe Weather on mobile